sensor_id;sensor_type;location;lat;lon;timestamp;temperature;humidity
10419;DHT22;5256;48.728;9.140;2023-04-08T00:00:51;6.60;99.90
10419;DHT22;5256;48.728;9.140;2023-04-08T00:03:17;6.60;99.90
10419;DHT22;5256;48.728;9.140;2023-04-08T00:05:42;6.70;99.90
10419;DHT22;5256;48.728;9.140;2023-04-08T00:08:08;6.80;99.90
10419;DHT22;5256;48.728;9.140;2023-04-08T00:10:34;6.80;99.90
10419;DHT22;5256;48.728;9.140;2023-04-08T00:12:59;6.80;99.90
10419;DHT22;5256;48.728;9.140;2023-04-08T00:15:25;6.90;99.90
10419;DHT22;5256;48.728;9.140;2023-04-08T00:17:51;6.90;99.90
10419;DHT22;5256;48.728;9.140;2023-04-08T00:20:19;6.90;99.90
10419;DHT22;5256;48.728;9.140;2023-04-08T00:22:45;6.90;99.90
10419;DHT22;5256;48.728;9.140;2023-04-08T00:25:11;6.90;99.90
10419;DHT22;5256;48.728;9.140;2023-04-08T00:27:36;6.80;99.90
10419;DHT22;5256;48.728;9.140;2023-04-08T00:30:02;6.90;99.90
10419;DHT22;5256;48.728;9.140;2023-04-08T00:32:28;6.90;99.90
10419;DHT22;5256;48.728;9.140;2023-04-08T00:34:54;6.80;99.90
10419;DHT22;5256;48.728;9.140;2023-04-08T00:37:19;6.80;99.90
10419;DHT22;5256;48.728;9.140;2023-04-08T00:39:45;6.70;99.90
10419;DHT22;5256;48.728;9.140;2023-04-08T00:42:11;6.70;99.90
10419;DHT22;5256;48.728;9.140;2023-04-08T00:44:36;6.70;99.90
10419;DHT22;5256;48.728;9.140;2023-04-08T00:47:03;6.60;99.90
10419;DHT22;5256;48.728;9.140;2023-04-08T00:49:30;6.60;99.90
10419;DHT22;5256;48.728;9.140;2023-04-08T00:51:56;6.50;99.90
10419;DHT22;5256;48.728;9.140;2023-04-08T00:54:23;6.60;99.90
10419;DHT22;5256;48.728;9.140;2023-04-08T00:56:48;6.50;99.90
10419;DHT22;5256;48.728;9.140;2023-04-08T00:59:16;6.60;99.90
10419;DHT22;5256;48.728;9.140;2023-04-08T01:02:13;6.60;99.90
10419;DHT22;5256;48.728;9.140;2023-04-08T01:04:43;6.60;99.90
10419;DHT22;5256;48.728;9.140;2023-04-08T01:07:16;6.60;99.90
10419;DHT22;5256;48.728;9.140;2023-04-08T01:09:47;6.60;99.90
10419;DHT22;5256;48.728;9.140;2023-04-08T01:12:24;6.70;99.90
10419;DHT22;5256;48.728;9.140;2023-04-08T01:15:03;6.70;99.90
10419;DHT22;5256;48.728;9.140;2023-04-08T01:17:30;6.60;99.90
10419;DHT22;5256;48.728;9.140;2023-04-08T01:19:58;6.60;99.90
10419;DHT22;5256;48.728;9.140;2023-04-08T01:22:45;6.60;99.90
10419;DHT22;5256;48.728;9.140;2023-04-08T01:25:23;6.60;99.90
10419;DHT22;5256;48.728;9.140;2023-04-08T01:27:51;6.60;99.90
10419;DHT22;5256;48.728;9.140;2023-04-08T01:30:22;6.60;99.90
10419;DHT22;5256;48.728;9.140;2023-04-08T01:32:49;6.50;99.90
10419;DHT22;5256;48.728;9.140;2023-04-08T01:35:16;6.50;99.90
10419;DHT22;5256;48.728;9.140;2023-04-08T01:37:43;6.50;99.90
10419;DHT22;5256;48.728;9.140;2023-04-08T01:40:10;6.40;99.90
10419;DHT22;5256;48.728;9.140;2023-04-08T01:42:36;6.50;99.90
10419;DHT22;5256;48.728;9.140;2023-04-08T01:45:02;6.40;99.90
10419;DHT22;5256;48.728;9.140;2023-04-08T01:47:28;6.40;99.90
10419;DHT22;5256;48.728;9.140;2023-04-08T01:49:55;6.40;99.90
10419;DHT22;5256;48.728;9.140;2023-04-08T01:52:22;6.40;99.90
10419;DHT22;5256;48.728;9.140;2023-04-08T01:54:49;6.40;99.90
10419;DHT22;5256;48.728;9.140;2023-04-08T01:57:21;6.40;99.90
10419;DHT22;5256;48.728;9.140;2023-04-08T01:59:50;6.40;99.90
10419;DHT22;5256;48.728;9.140;2023-04-08T02:02:20;6.40;99.90
10419;DHT22;5256;48.728;9.140;2023-04-08T02:04:47;6.30;99.90
10419;DHT22;5256;48.728;9.140;2023-04-08T02:07:13;6.20;99.90
10419;DHT22;5256;48.728;9.140;2023-04-08T02:09:39;6.20;99.90
10419;DHT22;5256;48.728;9.140;2023-04-08T02:12:04;6.20;99.90
10419;DHT22;5256;48.728;9.140;2023-04-08T02:14:30;6.20;99.90
10419;DHT22;5256;48.728;9.140;2023-04-08T02:17:04;6.20;99.90
10419;DHT22;5256;48.728;9.140;2023-04-08T02:19:45;6.20;99.90
10419;DHT22;5256;48.728;9.140;2023-04-08T02:22:39;6.10;99.90
10419;DHT22;5256;48.728;9.140;2023-04-08T02:25:03;6.10;99.90
10419;DHT22;5256;48.728;9.140;2023-04-08T02:27:33;6.20;99.90
10419;DHT22;5256;48.728;9.140;2023-04-08T02:30:02;6.10;99.90
10419;DHT22;5256;48.728;9.140;2023-04-08T02:32:30;6.10;99.90
10419;DHT22;5256;48.728;9.140;2023-04-08T02:34:58;6.10;99.90
10419;DHT22;5256;48.728;9.140;2023-04-08T02:37:26;6.10;99.90
10419;DHT22;5256;48.728;9.140;2023-04-08T02:39:52;6.00;99.90
10419;DHT22;5256;48.728;9.140;2023-04-08T02:42:18;6.00;99.90
10419;DHT22;5256;48.728;9.140;2023-04-08T02:44:43;6.00;99.90
10419;DHT22;5256;48.728;9.140;2023-04-08T02:47:09;6.00;99.90
10419;DHT22;5256;48.728;9.140;2023-04-08T02:49:34;6.00;99.90
10419;DHT22;5256;48.728;9.140;2023-04-08T02:52:00;6.00;99.90
10419;DHT22;5256;48.728;9.140;2023-04-08T02:54:25;6.00;99.90
10419;DHT22;5256;48.728;9.140;2023-04-08T02:56:51;6.10;99.90
10419;DHT22;5256;48.728;9.140;2023-04-08T02:59:16;6.10;99.90
10419;DHT22;5256;48.728;9.140;2023-04-08T03:01:42;6.00;99.90
10419;DHT22;5256;48.728;9.140;2023-04-08T03:04:08;6.10;99.90
10419;DHT22;5256;48.728;9.140;2023-04-08T03:06:33;6.10;99.90
10419;DHT22;5256;48.728;9.140;2023-04-08T03:08:59;6.10;99.90
10419;DHT22;5256;48.728;9.140;2023-04-08T03:11:24;6.10;99.90
10419;DHT22;5256;48.728;9.140;2023-04-08T03:13:50;6.10;99.90
10419;DHT22;5256;48.728;9.140;2023-04-08T03:16:16;6.10;99.90
10419;DHT22;5256;48.728;9.140;2023-04-08T03:18:41;6.10;99.90
10419;DHT22;5256;48.728;9.140;2023-04-08T03:21:07;6.10;99.90
10419;DHT22;5256;48.728;9.140;2023-04-08T03:23:32;6.10;99.90
10419;DHT22;5256;48.728;9.140;2023-04-08T03:25:58;6.10;99.90
10419;DHT22;5256;48.728;9.140;2023-04-08T03:28:23;6.10;99.90
10419;DHT22;5256;48.728;9.140;2023-04-08T03:30:49;6.10;99.90
10419;DHT22;5256;48.728;9.140;2023-04-08T03:33:14;6.00;99.90
10419;DHT22;5256;48.728;9.140;2023-04-08T03:35:40;6.10;99.90
10419;DHT22;5256;48.728;9.140;2023-04-08T03:38:06;6.00;99.90
10419;DHT22;5256;48.728;9.140;2023-04-08T03:40:31;6.10;99.90
10419;DHT22;5256;48.728;9.140;2023-04-08T03:42:57;6.00;99.90
10419;DHT22;5256;48.728;9.140;2023-04-08T03:45:22;6.00;99.90
10419;DHT22;5256;48.728;9.140;2023-04-08T03:47:48;6.00;99.90
10419;DHT22;5256;48.728;9.140;2023-04-08T03:50:13;6.00;99.90
10419;DHT22;5256;48.728;9.140;2023-04-08T03:52:39;6.00;99.90
10419;DHT22;5256;48.728;9.140;2023-04-08T03:55:05;6.00;99.90
10419;DHT22;5256;48.728;9.140;2023-04-08T03:57:31;6.10;99.90
10419;DHT22;5256;48.728;9.140;2023-04-08T03:59:56;6.00;99.90
10419;DHT22;5256;48.728;9.140;2023-04-08T04:02:22;6.00;99.90
10419;DHT22;5256;48.728;9.140;2023-04-08T04:04:47;6.00;99.90
10419;DHT22;5256;48.728;9.140;2023-04-08T04:07:13;5.90;99.90
10419;DHT22;5256;48.728;9.140;2023-04-08T04:09:38;5.80;99.90
10419;DHT22;5256;48.728;9.140;2023-04-08T04:12:04;5.80;99.90
10419;DHT22;5256;48.728;9.140;2023-04-08T04:14:30;5.80;99.90
10419;DHT22;5256;48.728;9.140;2023-04-08T04:16:55;5.70;99.90
10419;DHT22;5256;48.728;9.140;2023-04-08T04:19:21;5.80;99.90
10419;DHT22;5256;48.728;9.140;2023-04-08T04:21:46;6.00;99.90
10419;DHT22;5256;48.728;9.140;2023-04-08T04:24:12;5.90;99.90
10419;DHT22;5256;48.728;9.140;2023-04-08T04:26:40;5.90;99.90
10419;DHT22;5256;48.728;9.140;2023-04-08T04:29:06;5.90;99.90
10419;DHT22;5256;48.728;9.140;2023-04-08T04:31:31;5.80;99.90
10419;DHT22;5256;48.728;9.140;2023-04-08T04:33:57;5.90;99.90
10419;DHT22;5256;48.728;9.140;2023-04-08T04:36:22;6.00;99.90
10419;DHT22;5256;48.728;9.140;2023-04-08T04:38:48;6.00;99.90
10419;DHT22;5256;48.728;9.140;2023-04-08T04:41:14;6.10;99.90
10419;DHT22;5256;48.728;9.140;2023-04-08T04:43:40;6.10;99.90
10419;DHT22;5256;48.728;9.140;2023-04-08T04:46:06;6.00;99.90
10419;DHT22;5256;48.728;9.140;2023-04-08T04:48:33;6.00;99.90
10419;DHT22;5256;48.728;9.140;2023-04-08T04:51:00;5.90;99.90
10419;DHT22;5256;48.728;9.140;2023-04-08T04:53:27;5.80;99.90
10419;DHT22;5256;48.728;9.140;2023-04-08T04:55:53;5.70;99.90
10419;DHT22;5256;48.728;9.140;2023-04-08T04:58:19;5.70;99.90
10419;DHT22;5256;48.728;9.140;2023-04-08T05:00:45;5.60;99.90
10419;DHT22;5256;48.728;9.140;2023-04-08T05:03:11;5.60;99.90
10419;DHT22;5256;48.728;9.140;2023-04-08T05:05:37;5.60;99.90
10419;DHT22;5256;48.728;9.140;2023-04-08T05:08:03;5.70;99.90
10419;DHT22;5256;48.728;9.140;2023-04-08T05:10:28;5.70;99.90
10419;DHT22;5256;48.728;9.140;2023-04-08T05:12:54;5.70;99.90
10419;DHT22;5256;48.728;9.140;2023-04-08T05:15:19;5.70;99.90
10419;DHT22;5256;48.728;9.140;2023-04-08T05:17:45;5.80;99.90
10419;DHT22;5256;48.728;9.140;2023-04-08T05:20:11;5.70;99.90
10419;DHT22;5256;48.728;9.140;2023-04-08T05:22:40;5.70;99.90
10419;DHT22;5256;48.728;9.140;2023-04-08T05:25:07;5.80;99.90
10419;DHT22;5256;48.728;9.140;2023-04-08T05:27:32;5.80;99.90
10419;DHT22;5256;48.728;9.140;2023-04-08T05:29:58;5.80;99.90
10419;DHT22;5256;48.728;9.140;2023-04-08T05:32:23;5.80;99.90
10419;DHT22;5256;48.728;9.140;2023-04-08T05:34:49;5.90;99.90
10419;DHT22;5256;48.728;9.140;2023-04-08T05:37:14;5.90;99.90
10419;DHT22;5256;48.728;9.140;2023-04-08T05:39:40;6.00;99.90
10419;DHT22;5256;48.728;9.140;2023-04-08T05:42:06;5.90;99.90
10419;DHT22;5256;48.728;9.140;2023-04-08T05:44:32;5.90;99.90
10419;DHT22;5256;48.728;9.140;2023-04-08T05:46:57;5.90;99.90
10419;DHT22;5256;48.728;9.140;2023-04-08T05:49:24;6.00;99.90
10419;DHT22;5256;48.728;9.140;2023-04-08T05:51:50;6.00;99.90
10419;DHT22;5256;48.728;9.140;2023-04-08T05:54:15;6.10;99.90
10419;DHT22;5256;48.728;9.140;2023-04-08T05:56:41;6.10;99.90
10419;DHT22;5256;48.728;9.140;2023-04-08T05:59:06;6.20;99.90
10419;DHT22;5256;48.728;9.140;2023-04-08T06:01:32;6.20;99.90
10419;DHT22;5256;48.728;9.140;2023-04-08T06:03:57;6.10;99.90
10419;DHT22;5256;48.728;9.140;2023-04-08T06:06:23;6.20;99.90
10419;DHT22;5256;48.728;9.140;2023-04-08T06:08:49;6.20;99.90
10419;DHT22;5256;48.728;9.140;2023-04-08T06:11:15;6.30;99.90
10419;DHT22;5256;48.728;9.140;2023-04-08T06:13:41;6.30;99.90
10419;DHT22;5256;48.728;9.140;2023-04-08T06:16:14;6.40;99.90
10419;DHT22;5256;48.728;9.140;2023-04-08T06:18:40;6.30;99.90
10419;DHT22;5256;48.728;9.140;2023-04-08T06:21:05;6.30;99.90
10419;DHT22;5256;48.728;9.140;2023-04-08T06:23:31;6.30;99.90
10419;DHT22;5256;48.728;9.140;2023-04-08T06:25:57;6.30;99.90
10419;DHT22;5256;48.728;9.140;2023-04-08T06:28:23;6.30;99.90
10419;DHT22;5256;48.728;9.140;2023-04-08T06:30:48;6.30;99.90
10419;DHT22;5256;48.728;9.140;2023-04-08T06:33:14;6.50;99.90
10419;DHT22;5256;48.728;9.140;2023-04-08T06:35:40;6.40;99.90
10419;DHT22;5256;48.728;9.140;2023-04-08T06:38:06;6.50;99.90
10419;DHT22;5256;48.728;9.140;2023-04-08T06:40:31;6.50;99.90
10419;DHT22;5256;48.728;9.140;2023-04-08T06:42:57;6.60;99.90
10419;DHT22;5256;48.728;9.140;2023-04-08T06:45:23;6.70;99.90
10419;DHT22;5256;48.728;9.140;2023-04-08T06:47:48;6.90;99.90
10419;DHT22;5256;48.728;9.140;2023-04-08T06:50:14;6.90;99.90
10419;DHT22;5256;48.728;9.140;2023-04-08T06:52:39;7.10;99.90
10419;DHT22;5256;48.728;9.140;2023-04-08T06:55:06;7.20;99.90
10419;DHT22;5256;48.728;9.140;2023-04-08T06:57:31;7.20;99.90
10419;DHT22;5256;48.728;9.140;2023-04-08T06:59:57;7.30;99.90
10419;DHT22;5256;48.728;9.140;2023-04-08T07:02:24;7.30;99.90
10419;DHT22;5256;48.728;9.140;2023-04-08T07:04:50;7.20;99.90
10419;DHT22;5256;48.728;9.140;2023-04-08T07:07:16;7.30;99.90
10419;DHT22;5256;48.728;9.140;2023-04-08T07:09:41;7.30;99.90
10419;DHT22;5256;48.728;9.140;2023-04-08T07:12:10;7.30;99.90
10419;DHT22;5256;48.728;9.140;2023-04-08T07:14:36;7.30;99.90
10419;DHT22;5256;48.728;9.140;2023-04-08T07:17:01;7.30;99.90
10419;DHT22;5256;48.728;9.140;2023-04-08T07:19:27;7.30;99.90
10419;DHT22;5256;48.728;9.140;2023-04-08T07:21:52;7.20;99.90
10419;DHT22;5256;48.728;9.140;2023-04-08T07:24:18;7.20;99.90
10419;DHT22;5256;48.728;9.140;2023-04-08T07:26:44;7.10;99.90
10419;DHT22;5256;48.728;9.140;2023-04-08T07:29:09;7.20;99.90
10419;DHT22;5256;48.728;9.140;2023-04-08T07:31:35;7.00;99.90
10419;DHT22;5256;48.728;9.140;2023-04-08T07:34:01;7.00;99.90
10419;DHT22;5256;48.728;9.140;2023-04-08T07:36:26;6.90;99.90
10419;DHT22;5256;48.728;9.140;2023-04-08T07:38:52;6.90;99.90
10419;DHT22;5256;48.728;9.140;2023-04-08T07:41:18;7.10;99.90
10419;DHT22;5256;48.728;9.140;2023-04-08T07:43:45;7.20;99.90
10419;DHT22;5256;48.728;9.140;2023-04-08T07:46:11;7.10;99.90
10419;DHT22;5256;48.728;9.140;2023-04-08T07:48:36;7.20;99.90
10419;DHT22;5256;48.728;9.140;2023-04-08T07:51:04;7.40;99.90
10419;DHT22;5256;48.728;9.140;2023-04-08T07:53:30;7.50;99.90
10419;DHT22;5256;48.728;9.140;2023-04-08T07:55:56;7.70;99.90
10419;DHT22;5256;48.728;9.140;2023-04-08T07:58:22;7.80;99.90
10419;DHT22;5256;48.728;9.140;2023-04-08T08:00:48;7.90;99.90
10419;DHT22;5256;48.728;9.140;2023-04-08T08:03:13;8.20;99.90
10419;DHT22;5256;48.728;9.140;2023-04-08T08:05:39;8.20;99.90
10419;DHT22;5256;48.728;9.140;2023-04-08T08:08:05;8.20;99.90
10419;DHT22;5256;48.728;9.140;2023-04-08T08:10:32;8.30;99.90
10419;DHT22;5256;48.728;9.140;2023-04-08T08:12:58;8.30;99.90
10419;DHT22;5256;48.728;9.140;2023-04-08T08:15:24;8.40;99.90
10419;DHT22;5256;48.728;9.140;2023-04-08T08:17:49;8.50;99.90
10419;DHT22;5256;48.728;9.140;2023-04-08T08:20:15;8.50;99.90
10419;DHT22;5256;48.728;9.140;2023-04-08T08:22:41;8.60;99.90
10419;DHT22;5256;48.728;9.140;2023-04-08T08:25:07;8.70;99.90
10419;DHT22;5256;48.728;9.140;2023-04-08T08:27:34;8.80;99.90
10419;DHT22;5256;48.728;9.140;2023-04-08T08:30:01;8.80;99.90
10419;DHT22;5256;48.728;9.140;2023-04-08T08:32:26;8.80;99.90
10419;DHT22;5256;48.728;9.140;2023-04-08T08:34:52;8.90;99.90
10419;DHT22;5256;48.728;9.140;2023-04-08T08:37:18;9.00;99.90
10419;DHT22;5256;48.728;9.140;2023-04-08T08:39:43;9.10;99.90
10419;DHT22;5256;48.728;9.140;2023-04-08T08:42:22;9.20;99.90
10419;DHT22;5256;48.728;9.140;2023-04-08T08:44:48;9.20;99.90
10419;DHT22;5256;48.728;9.140;2023-04-08T08:47:15;9.10;99.90
10419;DHT22;5256;48.728;9.140;2023-04-08T08:49:42;9.00;99.90
10419;DHT22;5256;48.728;9.140;2023-04-08T08:52:08;9.20;99.90
10419;DHT22;5256;48.728;9.140;2023-04-08T08:54:34;9.40;99.90
10419;DHT22;5256;48.728;9.140;2023-04-08T08:57:00;9.70;99.90
10419;DHT22;5256;48.728;9.140;2023-04-08T08:59:25;9.70;99.90
10419;DHT22;5256;48.728;9.140;2023-04-08T09:01:51;9.50;99.90
10419;DHT22;5256;48.728;9.140;2023-04-08T09:04:18;9.80;99.90
10419;DHT22;5256;48.728;9.140;2023-04-08T09:06:45;10.10;99.90
10419;DHT22;5256;48.728;9.140;2023-04-08T09:09:12;10.30;99.90
10419;DHT22;5256;48.728;9.140;2023-04-08T09:11:45;10.50;99.90
10419;DHT22;5256;48.728;9.140;2023-04-08T09:14:19;10.80;99.90
10419;DHT22;5256;48.728;9.140;2023-04-08T09:16:44;11.10;99.90
10419;DHT22;5256;48.728;9.140;2023-04-08T09:19:10;11.10;99.90
10419;DHT22;5256;48.728;9.140;2023-04-08T09:21:37;11.40;99.90
10419;DHT22;5256;48.728;9.140;2023-04-08T09:24:02;11.50;99.90
10419;DHT22;5256;48.728;9.140;2023-04-08T09:26:28;11.70;99.90
10419;DHT22;5256;48.728;9.140;2023-04-08T09:29:07;11.70;99.90
10419;DHT22;5256;48.728;9.140;2023-04-08T09:31:35;11.40;99.90
10419;DHT22;5256;48.728;9.140;2023-04-08T09:34:16;11.30;99.90
10419;DHT22;5256;48.728;9.140;2023-04-08T09:36:42;11.70;99.90
10419;DHT22;5256;48.728;9.140;2023-04-08T09:39:11;11.90;99.90
10419;DHT22;5256;48.728;9.140;2023-04-08T09:41:38;12.10;99.90
10419;DHT22;5256;48.728;9.140;2023-04-08T09:44:05;12.10;99.90
10419;DHT22;5256;48.728;9.140;2023-04-08T09:55:21;11.50;99.90
10419;DHT22;5256;48.728;9.140;2023-04-08T09:57:45;11.70;99.90
10419;DHT22;5256;48.728;9.140;2023-04-08T10:00:16;11.80;99.90
10419;DHT22;5256;48.728;9.140;2023-04-08T10:05:18;11.90;99.90
10419;DHT22;5256;48.728;9.140;2023-04-08T10:07:44;12.10;99.90
10419;DHT22;5256;48.728;9.140;2023-04-08T10:10:10;12.00;99.90
10419;DHT22;5256;48.728;9.140;2023-04-08T10:12:36;12.40;99.90
10419;DHT22;5256;48.728;9.140;2023-04-08T10:15:22;12.60;99.90
10419;DHT22;5256;48.728;9.140;2023-04-08T10:17:55;12.50;99.90
10419;DHT22;5256;48.728;9.140;2023-04-08T10:23:06;12.40;99.90
10419;DHT22;5256;48.728;9.140;2023-04-08T10:25:32;12.00;99.90
10419;DHT22;5256;48.728;9.140;2023-04-08T10:27:59;12.10;99.90
10419;DHT22;5256;48.728;9.140;2023-04-08T10:32:58;12.10;99.90
10419;DHT22;5256;48.728;9.140;2023-04-08T10:35:41;12.00;99.90
10419;DHT22;5256;48.728;9.140;2023-04-08T10:38:07;11.90;99.90
10419;DHT22;5256;48.728;9.140;2023-04-08T10:40:39;11.60;99.90
10419;DHT22;5256;48.728;9.140;2023-04-08T10:43:08;11.50;99.90
10419;DHT22;5256;48.728;9.140;2023-04-08T10:45:34;11.20;99.90
10419;DHT22;5256;48.728;9.140;2023-04-08T10:48:19;11.10;99.90
10419;DHT22;5256;48.728;9.140;2023-04-08T10:50:53;10.60;99.90
10419;DHT22;5256;48.728;9.140;2023-04-08T10:53:36;10.60;99.90
10419;DHT22;5256;48.728;9.140;2023-04-08T10:56:06;10.40;99.90
10419;DHT22;5256;48.728;9.140;2023-04-08T10:58:33;10.50;99.90
10419;DHT22;5256;48.728;9.140;2023-04-08T11:01:05;10.30;99.90
10419;DHT22;5256;48.728;9.140;2023-04-08T11:03:32;10.10;99.90
10419;DHT22;5256;48.728;9.140;2023-04-08T11:05:59;10.20;99.90
10419;DHT22;5256;48.728;9.140;2023-04-08T11:08:29;10.40;99.90
10419;DHT22;5256;48.728;9.140;2023-04-08T11:10:54;10.50;99.90
10419;DHT22;5256;48.728;9.140;2023-04-08T11:13:21;10.30;99.90
10419;DHT22;5256;48.728;9.140;2023-04-08T11:15:58;10.10;99.90
10419;DHT22;5256;48.728;9.140;2023-04-08T11:18:24;10.10;99.90
10419;DHT22;5256;48.728;9.140;2023-04-08T11:20:51;10.30;99.90
10419;DHT22;5256;48.728;9.140;2023-04-08T11:23:17;10.30;99.90
10419;DHT22;5256;48.728;9.140;2023-04-08T11:25:44;10.20;99.90
10419;DHT22;5256;48.728;9.140;2023-04-08T11:28:11;10.30;99.90
10419;DHT22;5256;48.728;9.140;2023-04-08T11:30:38;10.50;99.90
10419;DHT22;5256;48.728;9.140;2023-04-08T11:33:05;10.70;99.90
10419;DHT22;5256;48.728;9.140;2023-04-08T11:35:30;10.80;99.90
10419;DHT22;5256;48.728;9.140;2023-04-08T11:37:57;10.80;99.90
10419;DHT22;5256;48.728;9.140;2023-04-08T11:40:23;10.80;99.90
10419;DHT22;5256;48.728;9.140;2023-04-08T11:42:49;10.90;99.90
10419;DHT22;5256;48.728;9.140;2023-04-08T11:45:17;11.00;99.90
10419;DHT22;5256;48.728;9.140;2023-04-08T11:47:43;11.00;99.90
10419;DHT22;5256;48.728;9.140;2023-04-08T11:50:09;11.00;99.90
10419;DHT22;5256;48.728;9.140;2023-04-08T11:52:46;10.90;99.90
10419;DHT22;5256;48.728;9.140;2023-04-08T11:55:21;10.90;99.90
10419;DHT22;5256;48.728;9.140;2023-04-08T11:57:47;10.70;99.90
10419;DHT22;5256;48.728;9.140;2023-04-08T12:00:13;10.70;99.90
10419;DHT22;5256;48.728;9.140;2023-04-08T12:02:39;10.80;99.90
10419;DHT22;5256;48.728;9.140;2023-04-08T12:05:05;10.80;99.90
10419;DHT22;5256;48.728;9.140;2023-04-08T12:07:31;10.80;99.90
10419;DHT22;5256;48.728;9.140;2023-04-08T12:09:57;11.10;99.90
10419;DHT22;5256;48.728;9.140;2023-04-08T12:12:23;11.40;99.90
10419;DHT22;5256;48.728;9.140;2023-04-08T12:14:49;11.60;99.90
10419;DHT22;5256;48.728;9.140;2023-04-08T12:17:18;11.50;99.90
10419;DHT22;5256;48.728;9.140;2023-04-08T12:19:43;11.50;99.90
10419;DHT22;5256;48.728;9.140;2023-04-08T12:22:09;11.50;99.90
10419;DHT22;5256;48.728;9.140;2023-04-08T12:24:34;11.60;99.90
10419;DHT22;5256;48.728;9.140;2023-04-08T12:27:00;11.60;99.90
10419;DHT22;5256;48.728;9.140;2023-04-08T12:29:27;11.30;99.90
10419;DHT22;5256;48.728;9.140;2023-04-08T12:31:53;11.20;99.90
10419;DHT22;5256;48.728;9.140;2023-04-08T12:34:19;10.90;99.90
10419;DHT22;5256;48.728;9.140;2023-04-08T12:36:44;10.80;99.90
10419;DHT22;5256;48.728;9.140;2023-04-08T12:39:10;10.60;99.90
10419;DHT22;5256;48.728;9.140;2023-04-08T12:41:36;10.60;99.90
10419;DHT22;5256;48.728;9.140;2023-04-08T12:44:02;10.40;99.90
10419;DHT22;5256;48.728;9.140;2023-04-08T12:46:27;10.40;99.90
10419;DHT22;5256;48.728;9.140;2023-04-08T12:48:53;10.40;99.90
10419;DHT22;5256;48.728;9.140;2023-04-08T12:51:18;10.40;99.90
10419;DHT22;5256;48.728;9.140;2023-04-08T12:53:45;10.20;99.90
10419;DHT22;5256;48.728;9.140;2023-04-08T12:56:11;10.20;99.90
10419;DHT22;5256;48.728;9.140;2023-04-08T12:58:37;10.30;99.90
10419;DHT22;5256;48.728;9.140;2023-04-08T13:01:03;10.30;99.90
10419;DHT22;5256;48.728;9.140;2023-04-08T13:03:28;10.10;99.90
10419;DHT22;5256;48.728;9.140;2023-04-08T13:05:56;10.20;99.90
10419;DHT22;5256;48.728;9.140;2023-04-08T13:08:23;10.10;99.90
10419;DHT22;5256;48.728;9.140;2023-04-08T13:10:49;10.00;99.90
10419;DHT22;5256;48.728;9.140;2023-04-08T13:13:14;10.10;99.90
10419;DHT22;5256;48.728;9.140;2023-04-08T13:15:41;10.00;99.90
10419;DHT22;5256;48.728;9.140;2023-04-08T13:18:08;9.70;99.90
10419;DHT22;5256;48.728;9.140;2023-04-08T13:20:34;9.70;99.90
10419;DHT22;5256;48.728;9.140;2023-04-08T13:23:00;9.70;99.90
10419;DHT22;5256;48.728;9.140;2023-04-08T13:25:25;9.70;99.90
10419;DHT22;5256;48.728;9.140;2023-04-08T13:27:51;9.60;99.90
10419;DHT22;5256;48.728;9.140;2023-04-08T13:30:17;9.70;99.90
10419;DHT22;5256;48.728;9.140;2023-04-08T13:32:42;9.70;99.90
10419;DHT22;5256;48.728;9.140;2023-04-08T13:35:08;9.60;99.90
10419;DHT22;5256;48.728;9.140;2023-04-08T13:37:34;9.40;99.90
10419;DHT22;5256;48.728;9.140;2023-04-08T13:39:59;9.50;99.90
10419;DHT22;5256;48.728;9.140;2023-04-08T13:42:25;9.50;99.90
10419;DHT22;5256;48.728;9.140;2023-04-08T13:44:51;9.60;99.90
10419;DHT22;5256;48.728;9.140;2023-04-08T13:47:17;9.80;99.90
10419;DHT22;5256;48.728;9.140;2023-04-08T13:49:42;9.80;99.90
10419;DHT22;5256;48.728;9.140;2023-04-08T13:52:08;10.00;99.90
10419;DHT22;5256;48.728;9.140;2023-04-08T13:54:34;9.90;99.90
10419;DHT22;5256;48.728;9.140;2023-04-08T13:56:59;9.80;99.90
10419;DHT22;5256;48.728;9.140;2023-04-08T13:59:25;10.00;99.90
10419;DHT22;5256;48.728;9.140;2023-04-08T14:01:51;10.10;99.90
10419;DHT22;5256;48.728;9.140;2023-04-08T14:04:21;10.30;99.90
10419;DHT22;5256;48.728;9.140;2023-04-08T14:06:48;10.20;99.90
10419;DHT22;5256;48.728;9.140;2023-04-08T14:09:16;10.40;99.90
10419;DHT22;5256;48.728;9.140;2023-04-08T14:11:42;10.30;99.90
10419;DHT22;5256;48.728;9.140;2023-04-08T14:14:07;10.10;99.90
10419;DHT22;5256;48.728;9.140;2023-04-08T14:16:33;10.10;99.90
10419;DHT22;5256;48.728;9.140;2023-04-08T14:19:00;10.30;99.90
10419;DHT22;5256;48.728;9.140;2023-04-08T14:21:25;10.40;99.90
10419;DHT22;5256;48.728;9.140;2023-04-08T14:23:51;10.60;99.90
10419;DHT22;5256;48.728;9.140;2023-04-08T14:26:17;10.70;99.90
10419;DHT22;5256;48.728;9.140;2023-04-08T14:28:43;10.90;99.90
10419;DHT22;5256;48.728;9.140;2023-04-08T14:31:08;11.20;99.90
10419;DHT22;5256;48.728;9.140;2023-04-08T14:33:34;11.20;99.90
10419;DHT22;5256;48.728;9.140;2023-04-08T14:36:00;11.00;99.90
10419;DHT22;5256;48.728;9.140;2023-04-08T14:38:26;10.80;99.90
10419;DHT22;5256;48.728;9.140;2023-04-08T14:40:51;10.80;99.90
10419;DHT22;5256;48.728;9.140;2023-04-08T14:43:18;10.80;99.90
10419;DHT22;5256;48.728;9.140;2023-04-08T14:45:44;10.80;99.90
10419;DHT22;5256;48.728;9.140;2023-04-08T14:48:09;10.90;99.90
10419;DHT22;5256;48.728;9.140;2023-04-08T14:50:35;10.90;99.90
10419;DHT22;5256;48.728;9.140;2023-04-08T14:53:01;10.80;99.90
10419;DHT22;5256;48.728;9.140;2023-04-08T14:55:27;10.60;99.90
10419;DHT22;5256;48.728;9.140;2023-04-08T14:57:54;10.60;99.90
10419;DHT22;5256;48.728;9.140;2023-04-08T15:00:21;10.30;99.90
10419;DHT22;5256;48.728;9.140;2023-04-08T15:02:46;10.10;99.90
10419;DHT22;5256;48.728;9.140;2023-04-08T15:05:12;10.20;99.90
10419;DHT22;5256;48.728;9.140;2023-04-08T15:07:37;10.30;99.90
10419;DHT22;5256;48.728;9.140;2023-04-08T15:10:03;10.20;99.90
10419;DHT22;5256;48.728;9.140;2023-04-08T15:12:29;10.10;99.90
10419;DHT22;5256;48.728;9.140;2023-04-08T15:14:54;10.20;99.90
10419;DHT22;5256;48.728;9.140;2023-04-08T15:17:20;10.30;99.90
10419;DHT22;5256;48.728;9.140;2023-04-08T15:19:45;10.20;99.90
10419;DHT22;5256;48.728;9.140;2023-04-08T15:22:11;10.20;99.90
10419;DHT22;5256;48.728;9.140;2023-04-08T15:24:37;10.10;99.90
10419;DHT22;5256;48.728;9.140;2023-04-08T15:27:02;9.90;99.90
10419;DHT22;5256;48.728;9.140;2023-04-08T15:29:28;9.80;99.90
10419;DHT22;5256;48.728;9.140;2023-04-08T15:31:53;9.70;99.90
10419;DHT22;5256;48.728;9.140;2023-04-08T15:34:19;9.70;99.90
10419;DHT22;5256;48.728;9.140;2023-04-08T15:36:45;9.50;99.90
10419;DHT22;5256;48.728;9.140;2023-04-08T15:39:11;9.60;99.90
10419;DHT22;5256;48.728;9.140;2023-04-08T15:41:37;9.80;99.90
10419;DHT22;5256;48.728;9.140;2023-04-08T15:44:03;9.90;99.90
10419;DHT22;5256;48.728;9.140;2023-04-08T15:46:28;9.80;99.90
10419;DHT22;5256;48.728;9.140;2023-04-08T15:48:54;9.90;99.90
10419;DHT22;5256;48.728;9.140;2023-04-08T15:51:19;9.90;99.90
10419;DHT22;5256;48.728;9.140;2023-04-08T15:53:45;9.90;99.90
10419;DHT22;5256;48.728;9.140;2023-04-08T15:56:11;9.80;99.90
10419;DHT22;5256;48.728;9.140;2023-04-08T15:58:38;9.80;99.90
10419;DHT22;5256;48.728;9.140;2023-04-08T16:01:03;9.70;99.90
10419;DHT22;5256;48.728;9.140;2023-04-08T16:03:29;9.40;99.90
10419;DHT22;5256;48.728;9.140;2023-04-08T16:05:54;9.50;99.90
10419;DHT22;5256;48.728;9.140;2023-04-08T16:08:20;9.40;99.90
10419;DHT22;5256;48.728;9.140;2023-04-08T16:10:45;9.30;99.90